EZY246Y EGKK-EGPH
Flight info
| Callsign | EZY246Y |
|---|---|
| Flight time | 0h 58m |
| Altitude | 36000 |
| Route | LAM L10 BPK UN601 RIBEL DCT INPIP |
| Aircraft | A319/M-SDE3FGHIRWY/LB1 |
Departure
| Time | 2026-04-23 15:26 |
|---|---|
| Airport | London Gatwick Airport (EGKK) |
Arrival
| Time | 2026-04-23 16:24 |
|---|---|
| Airport | Edinburgh Airport (EGPH) |
| Time | Latitude | Longitude | Altitude | Speed | Heading |
|---|---|---|---|---|---|
| 2026-04-23 14:51 | 51.15852 | -0.17518 | 215 ft | 0 kts | 347° |
| 2026-04-23 15:14 | 51.15851 | -0.17518 | 204 ft | 2 kts | 347° |
| 2026-04-23 15:14 | 51.15826 | -0.17509 | 204 ft | 4 kts | 347° |
| 2026-04-23 15:14 | 51.15800 | -0.17500 | 208 ft | 3 kts | 347° |
| 2026-04-23 15:14 | 51.15780 | -0.17491 | 213 ft | 4 kts | 326° |
| 2026-04-23 15:15 | 51.15768 | -0.17463 | 216 ft | 4 kts | 262° |
| 2026-04-23 15:15 | 51.15772 | -0.17429 | 216 ft | 1 kts | 257° |
| 2026-04-23 15:15 | 51.15772 | -0.17428 | 213 ft | 0 kts | 257° |
| 2026-04-23 15:17 | 51.15772 | -0.17429 | 216 ft | 0 kts | 257° |
| 2026-04-23 15:17 | 51.15770 | -0.17442 | 216 ft | 2 kts | 257° |
| 2026-04-23 15:17 | 51.15763 | -0.17491 | 216 ft | 7 kts | 258° |
| 2026-04-23 15:17 | 51.15750 | -0.17588 | 204 ft | 11 kts | 257° |
| 2026-04-23 15:18 | 51.15731 | -0.17729 | 209 ft | 14 kts | 257° |
| 2026-04-23 15:18 | 51.15710 | -0.17881 | 204 ft | 14 kts | 257° |
| 2026-04-23 15:18 | 51.15688 | -0.18036 | 210 ft | 15 kts | 258° |
| 2026-04-23 15:18 | 51.15669 | -0.18176 | 207 ft | 9 kts | 257° |
| 2026-04-23 15:19 | 51.15624 | -0.18236 | 204 ft | 9 kts | 176° |
| 2026-04-23 15:19 | 51.15555 | -0.18212 | 204 ft | 12 kts | 168° |
| 2026-04-23 15:19 | 51.15463 | -0.18173 | 208 ft | 15 kts | 159° |
| 2026-04-23 15:19 | 51.15362 | -0.18136 | 214 ft | 15 kts | 168° |
| 2026-04-23 15:20 | 51.15266 | -0.18101 | 204 ft | 9 kts | 167° |
| 2026-04-23 15:20 | 51.15210 | -0.18131 | 210 ft | 9 kts | 232° |
| 2026-04-23 15:20 | 51.15190 | -0.18249 | 209 ft | 14 kts | 259° |
| 2026-04-23 15:20 | 51.15171 | -0.18438 | 212 ft | 20 kts | 257° |
| 2026-04-23 15:21 | 51.15141 | -0.18655 | 207 ft | 20 kts | 257° |
| 2026-04-23 15:21 | 51.15110 | -0.18875 | 208 ft | 20 kts | 258° |
| 2026-04-23 15:21 | 51.15080 | -0.19092 | 207 ft | 20 kts | 257° |
| 2026-04-23 15:21 | 51.15051 | -0.19309 | 204 ft | 20 kts | 258° |
| 2026-04-23 15:22 | 51.15021 | -0.19525 | 204 ft | 20 kts | 257° |
| 2026-04-23 15:22 | 51.14991 | -0.19741 | 204 ft | 20 kts | 258° |
| 2026-04-23 15:22 | 51.14961 | -0.19958 | 204 ft | 20 kts | 257° |
| 2026-04-23 15:22 | 51.14931 | -0.20180 | 203 ft | 21 kts | 257° |
| 2026-04-23 15:23 | 51.14900 | -0.20403 | 203 ft | 21 kts | 257° |
| 2026-04-23 15:23 | 51.14869 | -0.20627 | 207 ft | 21 kts | 258° |
| 2026-04-23 15:23 | 51.14838 | -0.20848 | 211 ft | 20 kts | 257° |
| 2026-04-23 15:23 | 51.14811 | -0.21043 | 214 ft | 14 kts | 257° |
| 2026-04-23 15:24 | 51.14782 | -0.21198 | 207 ft | 15 kts | 251° |
| 2026-04-23 15:24 | 51.14762 | -0.21337 | 204 ft | 10 kts | 257° |
| 2026-04-23 15:24 | 51.14713 | -0.21402 | 205 ft | 10 kts | 179° |
| 2026-04-23 15:24 | 51.14651 | -0.21346 | 212 ft | 11 kts | 143° |
| 2026-04-23 15:25 | 51.14575 | -0.21311 | 207 ft | 12 kts | 161° |
| 2026-04-23 15:25 | 51.14519 | -0.21206 | 206 ft | 14 kts | 101° |
| 2026-04-23 15:25 | 51.14554 | -0.20924 | 212 ft | 55 kts | 77° |
| 2026-04-23 15:25 | 51.14687 | -0.19953 | 210 ft | 122 kts | 77° |
| 2026-04-23 15:26 | 51.14899 | -0.18432 | 548 ft | 143 kts | 77° |
| 2026-04-23 15:26 | 51.15112 | -0.16893 | 1326 ft | 142 kts | 78° |
| 2026-04-23 15:26 | 51.15336 | -0.15248 | 1782 ft | 164 kts | 78° |
| 2026-04-23 15:26 | 51.15595 | -0.13345 | 2169 ft | 190 kts | 78° |
| 2026-04-23 15:27 | 51.15890 | -0.11167 | 2675 ft | 212 kts | 79° |
| 2026-04-23 15:27 | 51.16217 | -0.08746 | 3288 ft | 233 kts | 79° |
| 2026-04-23 15:27 | 51.16781 | -0.06257 | 4106 ft | 248 kts | 59° |
| 2026-04-23 15:27 | 51.17866 | -0.04050 | 4762 ft | 257 kts | 54° |
| 2026-04-23 15:28 | 51.18958 | -0.01839 | 5460 ft | 251 kts | 55° |
| 2026-04-23 15:28 | 51.20041 | 0.00406 | 6424 ft | 258 kts | 55° |
| 2026-04-23 15:28 | 51.21133 | 0.02690 | 7401 ft | 260 kts | 55° |
| 2026-04-23 15:28 | 51.22369 | 0.04824 | 8317 ft | 268 kts | 39° |
| 2026-04-23 15:29 | 51.24102 | 0.06039 | 9188 ft | 280 kts | 13° |
| 2026-04-23 15:29 | 51.26077 | 0.05882 | 10119 ft | 290 kts | 352° |
| 2026-04-23 15:29 | 51.28073 | 0.05210 | 10843 ft | 301 kts | 352° |
| 2026-04-23 15:29 | 51.30202 | 0.04499 | 11172 ft | 324 kts | 352° |
| 2026-04-23 15:30 | 51.32451 | 0.03743 | 11798 ft | 334 kts | 351° |
| 2026-04-23 15:30 | 51.34743 | 0.02965 | 12585 ft | 338 kts | 352° |
| 2026-04-23 15:30 | 51.37058 | 0.02181 | 13403 ft | 342 kts | 352° |
| 2026-04-23 15:30 | 51.39399 | 0.01388 | 14132 ft | 346 kts | 352° |
| 2026-04-23 15:31 | 51.41764 | 0.00585 | 14364 ft | 348 kts | 352° |
| 2026-04-23 15:31 | 51.44133 | -0.00218 | 14431 ft | 348 kts | 352° |
| 2026-04-23 15:31 | 51.46517 | -0.01027 | 14784 ft | 352 kts | 352° |
| 2026-04-23 15:31 | 51.48920 | -0.01840 | 15540 ft | 354 kts | 352° |
| 2026-04-23 15:32 | 51.51347 | -0.02656 | 16283 ft | 358 kts | 352° |
| 2026-04-23 15:32 | 51.53767 | -0.03468 | 16967 ft | 362 kts | 351° |
| 2026-04-23 15:32 | 51.56243 | -0.04299 | 17652 ft | 366 kts | 351° |
| 2026-04-23 15:32 | 51.58785 | -0.05153 | 18349 ft | 370 kts | 351° |
| 2026-04-23 15:33 | 51.61278 | -0.05996 | 18998 ft | 373 kts | 351° |
| 2026-04-23 15:33 | 51.63832 | -0.06867 | 19584 ft | 377 kts | 351° |
| 2026-04-23 15:33 | 51.66410 | -0.07746 | 20176 ft | 381 kts | 351° |
| 2026-04-23 15:33 | 51.69020 | -0.08638 | 20768 ft | 385 kts | 351° |
| 2026-04-23 15:34 | 51.71651 | -0.09537 | 21359 ft | 389 kts | 351° |
| 2026-04-23 15:34 | 51.74292 | -0.10618 | 21932 ft | 395 kts | 343° |
| 2026-04-23 15:34 | 51.76823 | -0.12419 | 22494 ft | 401 kts | 332° |
| 2026-04-23 15:34 | 51.79242 | -0.14726 | 23067 ft | 405 kts | 331° |
| 2026-04-23 15:35 | 51.81679 | -0.17057 | 23616 ft | 409 kts | 331° |
| 2026-04-23 15:35 | 51.84151 | -0.19410 | 24042 ft | 414 kts | 330° |
| 2026-04-23 15:35 | 51.86644 | -0.21779 | 24492 ft | 417 kts | 330° |
| 2026-04-23 15:35 | 51.89157 | -0.24171 | 24941 ft | 420 kts | 330° |
| 2026-04-23 15:36 | 51.91684 | -0.26585 | 25405 ft | 423 kts | 330° |
| 2026-04-23 15:36 | 51.94230 | -0.29026 | 25817 ft | 427 kts | 330° |
| 2026-04-23 15:36 | 51.96796 | -0.31488 | 26223 ft | 430 kts | 330° |
| 2026-04-23 15:36 | 51.99380 | -0.33965 | 26642 ft | 433 kts | 330° |
| 2026-04-23 15:37 | 52.01987 | -0.36466 | 27071 ft | 436 kts | 330° |
| 2026-04-23 15:37 | 52.04606 | -0.38987 | 27488 ft | 439 kts | 329° |
| 2026-04-23 15:37 | 52.06349 | -0.40670 | 27732 ft | 442 kts | 329° |
| 2026-04-23 15:37 | 52.09904 | -0.44108 | 28244 ft | 447 kts | 329° |
| 2026-04-23 15:38 | 52.12584 | -0.46704 | 28629 ft | 451 kts | 329° |
| 2026-04-23 15:38 | 52.15293 | -0.49328 | 29010 ft | 454 kts | 329° |
| 2026-04-23 15:38 | 52.18021 | -0.51973 | 29379 ft | 458 kts | 329° |
| 2026-04-23 15:38 | 52.20768 | -0.54645 | 29747 ft | 461 kts | 329° |
| 2026-04-23 15:39 | 52.23530 | -0.57336 | 30117 ft | 464 kts | 329° |
| 2026-04-23 15:39 | 52.26311 | -0.60044 | 30465 ft | 467 kts | 329° |
| 2026-04-23 15:39 | 52.29117 | -0.62774 | 30749 ft | 471 kts | 329° |
| 2026-04-23 15:39 | 52.31943 | -0.65529 | 30979 ft | 475 kts | 328° |
| 2026-04-23 15:40 | 52.34792 | -0.68315 | 31261 ft | 478 kts | 328° |
| 2026-04-23 15:40 | 52.37649 | -0.71117 | 31585 ft | 480 kts | 328° |
| 2026-04-23 15:40 | 52.40516 | -0.73933 | 31899 ft | 481 kts | 328° |
| 2026-04-23 15:40 | 52.43394 | -0.76758 | 32269 ft | 481 kts | 328° |
| 2026-04-23 15:41 | 52.46257 | -0.79571 | 32738 ft | 479 kts | 328° |
| 2026-04-23 15:41 | 52.49111 | -0.82383 | 33195 ft | 478 kts | 328° |
| 2026-04-23 15:41 | 52.51954 | -0.85187 | 33653 ft | 476 kts | 328° |
| 2026-04-23 15:41 | 52.54786 | -0.87991 | 34070 ft | 475 kts | 328° |
| 2026-04-23 15:42 | 52.57577 | -0.90759 | 34472 ft | 475 kts | 328° |
| 2026-04-23 15:42 | 52.59484 | -0.92652 | 34724 ft | 474 kts | 328° |
| 2026-04-23 15:42 | 52.62300 | -0.95447 | 35068 ft | 472 kts | 328° |
| 2026-04-23 15:42 | 52.65107 | -0.98237 | 35455 ft | 470 kts | 328° |
| 2026-04-23 15:43 | 52.68798 | -1.01911 | 36023 ft | 464 kts | 329° |
| 2026-04-23 15:43 | 52.71544 | -1.04650 | 36319 ft | 458 kts | 329° |
| 2026-04-23 15:43 | 52.73376 | -1.06480 | 36364 ft | 453 kts | 329° |
| 2026-04-23 15:44 | 52.78718 | -1.11830 | 36468 ft | 448 kts | 329° |
| 2026-04-23 15:44 | 52.84076 | -1.17210 | 36468 ft | 450 kts | 329° |
| 2026-04-23 15:45 | 52.89416 | -1.22595 | 36463 ft | 449 kts | 329° |
| 2026-04-23 15:45 | 52.94755 | -1.27988 | 36465 ft | 451 kts | 329° |
| 2026-04-23 15:46 | 53.00115 | -1.33411 | 36472 ft | 451 kts | 328° |
| 2026-04-23 15:46 | 53.05461 | -1.38834 | 36468 ft | 451 kts | 328° |
| 2026-04-23 15:47 | 53.10806 | -1.44294 | 36447 ft | 451 kts | 328° |
| 2026-04-23 15:47 | 53.16155 | -1.49766 | 36466 ft | 451 kts | 328° |
| 2026-04-23 15:48 | 53.21505 | -1.55237 | 36473 ft | 447 kts | 329° |
| 2026-04-23 15:48 | 53.26717 | -1.60584 | 36466 ft | 437 kts | 328° |
| 2026-04-23 15:49 | 53.31893 | -1.65926 | 36458 ft | 437 kts | 328° |
| 2026-04-23 15:49 | 53.37072 | -1.71284 | 36461 ft | 437 kts | 329° |
| 2026-04-23 15:50 | 53.42245 | -1.76648 | 36463 ft | 437 kts | 328° |
| 2026-04-23 15:50 | 53.47425 | -1.82035 | 36465 ft | 437 kts | 328° |
| 2026-04-23 15:51 | 53.52600 | -1.87425 | 36464 ft | 438 kts | 329° |
| 2026-04-23 15:51 | 53.57771 | -1.92834 | 36470 ft | 438 kts | 328° |
| 2026-04-23 15:52 | 53.62915 | -1.98225 | 36470 ft | 438 kts | 328° |
| 2026-04-23 15:52 | 53.68115 | -2.03693 | 36470 ft | 438 kts | 328° |
| 2026-04-23 15:53 | 53.73247 | -2.09098 | 36458 ft | 437 kts | 330° |
| 2026-04-23 15:53 | 53.78742 | -2.13278 | 36456 ft | 425 kts | 339° |
| 2026-04-23 15:54 | 53.84187 | -2.16995 | 36460 ft | 424 kts | 338° |
| 2026-04-23 15:54 | 53.89646 | -2.20739 | 36461 ft | 423 kts | 338° |
| 2026-04-23 15:55 | 53.95113 | -2.24495 | 36462 ft | 424 kts | 338° |
| 2026-04-23 15:55 | 54.00565 | -2.28244 | 36455 ft | 422 kts | 338° |
| 2026-04-23 15:56 | 54.06016 | -2.31999 | 36438 ft | 423 kts | 338° |
| 2026-04-23 15:56 | 54.11471 | -2.35768 | 36445 ft | 423 kts | 338° |
| 2026-04-23 15:57 | 54.16928 | -2.39551 | 36443 ft | 423 kts | 338° |
| 2026-04-23 15:57 | 54.22378 | -2.43344 | 36448 ft | 423 kts | 338° |
| 2026-04-23 15:58 | 54.27834 | -2.47150 | 36430 ft | 424 kts | 338° |
| 2026-04-23 15:58 | 54.33301 | -2.50968 | 36432 ft | 425 kts | 338° |
| 2026-04-23 15:58 | 54.36043 | -2.52890 | 36196 ft | 426 kts | 338° |
| 2026-04-23 15:59 | 54.38784 | -2.54814 | 35904 ft | 424 kts | 338° |
| 2026-04-23 15:59 | 54.41500 | -2.56723 | 35384 ft | 420 kts | 338° |
| 2026-04-23 15:59 | 54.44208 | -2.58631 | 34837 ft | 418 kts | 338° |
| 2026-04-23 15:59 | 54.46893 | -2.60525 | 34277 ft | 416 kts | 338° |
| 2026-04-23 16:00 | 54.49559 | -2.62408 | 33732 ft | 412 kts | 338° |
| 2026-04-23 16:00 | 54.52197 | -2.64276 | 33207 ft | 408 kts | 338° |
| 2026-04-23 16:00 | 54.54811 | -2.66133 | 32695 ft | 404 kts | 338° |
| 2026-04-23 16:00 | 54.57399 | -2.67970 | 32185 ft | 401 kts | 338° |
| 2026-04-23 16:01 | 54.59964 | -2.69789 | 31680 ft | 397 kts | 338° |
| 2026-04-23 16:01 | 54.62513 | -2.71598 | 31192 ft | 394 kts | 338° |
| 2026-04-23 16:01 | 54.65045 | -2.73398 | 30696 ft | 392 kts | 338° |
| 2026-04-23 16:01 | 54.67560 | -2.75185 | 30166 ft | 389 kts | 338° |
| 2026-04-23 16:02 | 54.70019 | -2.76936 | 29696 ft | 385 kts | 338° |
| 2026-04-23 16:02 | 54.72516 | -2.78726 | 29184 ft | 382 kts | 338° |
| 2026-04-23 16:02 | 54.74933 | -2.80458 | 28751 ft | 379 kts | 338° |
| 2026-04-23 16:02 | 54.77361 | -2.82200 | 28298 ft | 376 kts | 338° |
| 2026-04-23 16:03 | 54.79800 | -2.83951 | 27856 ft | 374 kts | 338° |
| 2026-04-23 16:03 | 54.82166 | -2.85652 | 27424 ft | 372 kts | 338° |
| 2026-04-23 16:03 | 54.84542 | -2.87369 | 26994 ft | 369 kts | 338° |
| 2026-04-23 16:03 | 54.86935 | -2.89099 | 26564 ft | 366 kts | 338° |
| 2026-04-23 16:04 | 54.89257 | -2.90772 | 26098 ft | 369 kts | 338° |
| 2026-04-23 16:04 | 54.91686 | -2.92520 | 25546 ft | 375 kts | 338° |
| 2026-04-23 16:04 | 54.94069 | -2.94238 | 25041 ft | 375 kts | 338° |
| 2026-04-23 16:04 | 54.96480 | -2.95980 | 24514 ft | 376 kts | 338° |
| 2026-04-23 16:05 | 54.98115 | -2.97164 | 24159 ft | 376 kts | 337° |
| 2026-04-23 16:05 | 55.01313 | -2.99486 | 23404 ft | 376 kts | 337° |
| 2026-04-23 16:05 | 55.03719 | -3.01240 | 22886 ft | 374 kts | 337° |
| 2026-04-23 16:05 | 55.06116 | -3.02989 | 22358 ft | 372 kts | 337° |
| 2026-04-23 16:06 | 55.08502 | -3.04733 | 21845 ft | 371 kts | 337° |
| 2026-04-23 16:06 | 55.10879 | -3.06470 | 21325 ft | 370 kts | 337° |
| 2026-04-23 16:06 | 55.13252 | -3.08200 | 20812 ft | 369 kts | 337° |
| 2026-04-23 16:06 | 55.15620 | -3.09925 | 20281 ft | 369 kts | 337° |
| 2026-04-23 16:07 | 55.18013 | -3.11672 | 19518 ft | 375 kts | 337° |
| 2026-04-23 16:07 | 55.20440 | -3.13452 | 18816 ft | 381 kts | 336° |
| 2026-04-23 16:07 | 55.22861 | -3.15231 | 18212 ft | 373 kts | 336° |
| 2026-04-23 16:07 | 55.25210 | -3.16961 | 17692 ft | 360 kts | 336° |
| 2026-04-23 16:08 | 55.27484 | -3.18640 | 17199 ft | 349 kts | 337° |
| 2026-04-23 16:08 | 55.29778 | -3.19849 | 16710 ft | 340 kts | 350° |
| 2026-04-23 16:08 | 55.32106 | -3.20075 | 16232 ft | 332 kts | 3° |
| 2026-04-23 16:08 | 55.34391 | -3.19717 | 15766 ft | 325 kts | 5° |
| 2026-04-23 16:09 | 55.36628 | -3.19366 | 15303 ft | 320 kts | 4° |
| 2026-04-23 16:09 | 55.38808 | -3.19033 | 14851 ft | 317 kts | 4° |
| 2026-04-23 16:09 | 55.40995 | -3.18694 | 14400 ft | 314 kts | 4° |
| 2026-04-23 16:09 | 55.43162 | -3.18354 | 13925 ft | 313 kts | 4° |
| 2026-04-23 16:10 | 55.45343 | -3.18011 | 13423 ft | 316 kts | 4° |
| 2026-04-23 16:10 | 55.47542 | -3.17666 | 12929 ft | 318 kts | 4° |
| 2026-04-23 16:10 | 55.49737 | -3.17322 | 12428 ft | 313 kts | 4° |
| 2026-04-23 16:10 | 55.51883 | -3.16986 | 11949 ft | 306 kts | 4° |
| 2026-04-23 16:11 | 55.53988 | -3.16656 | 11473 ft | 302 kts | 4° |
| 2026-04-23 16:11 | 55.56077 | -3.16329 | 11014 ft | 299 kts | 4° |
| 2026-04-23 16:11 | 55.58146 | -3.16001 | 10556 ft | 298 kts | 4° |
| 2026-04-23 16:11 | 55.60207 | -3.15673 | 10081 ft | 297 kts | 4° |
| 2026-04-23 16:12 | 55.62269 | -3.15345 | 9680 ft | 296 kts | 4° |
| 2026-04-23 16:12 | 55.64307 | -3.15022 | 9345 ft | 293 kts | 4° |
| 2026-04-23 16:12 | 55.66326 | -3.14702 | 8980 ft | 290 kts | 4° |
| 2026-04-23 16:12 | 55.68336 | -3.14367 | 8618 ft | 288 kts | 5° |
| 2026-04-23 16:13 | 55.70324 | -3.14019 | 8236 ft | 286 kts | 5° |
| 2026-04-23 16:13 | 55.74235 | -3.14062 | 7528 ft | 278 kts | 337° |
| 2026-04-23 16:13 | 55.75809 | -3.15970 | 7389 ft | 274 kts | 309° |
| 2026-04-23 16:14 | 55.76709 | -3.18877 | 7030 ft | 267 kts | 283° |
| 2026-04-23 16:14 | 55.77119 | -3.22011 | 6909 ft | 254 kts | 280° |
| 2026-04-23 16:14 | 55.77471 | -3.25018 | 6779 ft | 243 kts | 279° |
| 2026-04-23 16:14 | 55.77812 | -3.27916 | 6537 ft | 237 kts | 279° |
| 2026-04-23 16:15 | 55.78148 | -3.30772 | 6217 ft | 235 kts | 280° |
| 2026-04-23 16:15 | 55.78474 | -3.33610 | 5877 ft | 234 kts | 279° |
| 2026-04-23 16:15 | 55.78795 | -3.36435 | 5543 ft | 233 kts | 279° |
| 2026-04-23 16:15 | 55.79121 | -3.39247 | 5210 ft | 232 kts | 279° |
| 2026-04-23 16:16 | 55.79452 | -3.42010 | 5045 ft | 224 kts | 279° |
| 2026-04-23 16:16 | 55.79768 | -3.44666 | 4882 ft | 216 kts | 279° |
| 2026-04-23 16:16 | 55.80077 | -3.47264 | 4572 ft | 214 kts | 279° |
| 2026-04-23 16:16 | 55.80313 | -3.49833 | 4500 ft | 208 kts | 272° |
| 2026-04-23 16:17 | 55.80395 | -3.52433 | 4503 ft | 212 kts | 270° |
| 2026-04-23 16:17 | 55.80462 | -3.55057 | 4502 ft | 213 kts | 270° |
| 2026-04-23 16:17 | 55.80678 | -3.57668 | 4502 ft | 215 kts | 278° |
| 2026-04-23 16:17 | 55.80977 | -3.60269 | 4465 ft | 214 kts | 279° |
| 2026-04-23 16:18 | 55.81286 | -3.62849 | 4189 ft | 213 kts | 279° |
| 2026-04-23 16:18 | 55.81596 | -3.65394 | 4001 ft | 206 kts | 279° |
| 2026-04-23 16:18 | 55.81941 | -3.67805 | 3982 ft | 200 kts | 290° |
| 2026-04-23 16:18 | 55.82884 | -3.69572 | 3980 ft | 204 kts | 336° |
| 2026-04-23 16:19 | 55.84269 | -3.69622 | 3970 ft | 205 kts | 24° |
| 2026-04-23 16:19 | 55.85257 | -3.67930 | 3821 ft | 199 kts | 72° |
| 2026-04-23 16:19 | 55.85463 | -3.65570 | 3646 ft | 191 kts | 88° |
| 2026-04-23 16:19 | 55.85987 | -3.63426 | 3370 ft | 193 kts | 53° |
| 2026-04-23 16:20 | 55.86780 | -3.61518 | 3108 ft | 190 kts | 62° |
| 2026-04-23 16:20 | 55.87421 | -3.59550 | 2859 ft | 180 kts | 62° |
| 2026-04-23 16:20 | 55.88028 | -3.57736 | 2627 ft | 162 kts | 62° |
| 2026-04-23 16:20 | 55.88582 | -3.56105 | 2416 ft | 146 kts | 61° |
| 2026-04-23 16:21 | 55.89094 | -3.54602 | 2224 ft | 138 kts | 61° |
| 2026-04-23 16:21 | 55.89587 | -3.53155 | 2037 ft | 135 kts | 60° |
| 2026-04-23 16:21 | 55.90072 | -3.51735 | 1849 ft | 133 kts | 60° |
| 2026-04-23 16:21 | 55.90390 | -3.50801 | 1729 ft | 131 kts | 61° |
| 2026-04-23 16:22 | 55.90860 | -3.49421 | 1547 ft | 130 kts | 60° |
| 2026-04-23 16:22 | 55.91327 | -3.48050 | 1380 ft | 129 kts | 60° |
| 2026-04-23 16:22 | 55.91789 | -3.46695 | 1195 ft | 127 kts | 60° |
| 2026-04-23 16:22 | 55.92242 | -3.45363 | 1017 ft | 125 kts | 60° |
| 2026-04-23 16:23 | 55.92687 | -3.44056 | 849 ft | 122 kts | 59° |
| 2026-04-23 16:23 | 55.93125 | -3.42766 | 675 ft | 121 kts | 59° |
| 2026-04-23 16:23 | 55.93562 | -3.41480 | 507 ft | 121 kts | 59° |
| 2026-04-23 16:23 | 55.93998 | -3.40200 | 361 ft | 120 kts | 59° |
| 2026-04-23 16:24 | 55.94428 | -3.38932 | 184 ft | 119 kts | 59° |
| 2026-04-23 16:24 | 55.94844 | -3.37710 | 113 ft | 104 kts | 59° |
| 2026-04-23 16:24 | 55.95137 | -3.36842 | 114 ft | 58 kts | 58° |
| 2026-04-23 16:24 | 55.95249 | -3.36519 | 112 ft | 12 kts | 59° |
| 2026-04-23 16:25 | 55.95243 | -3.36404 | 111 ft | 9 kts | 142° |
| 2026-04-23 16:25 | 55.95199 | -3.36358 | 115 ft | 6 kts | 149° |
| 2026-04-23 16:25 | 55.95164 | -3.36321 | 114 ft | 6 kts | 150° |
| 2026-04-23 16:25 | 55.95125 | -3.36321 | 116 ft | 7 kts | 208° |
| 2026-04-23 16:26 | 55.95090 | -3.36414 | 115 ft | 11 kts | 238° |
| 2026-04-23 16:26 | 55.95043 | -3.36553 | 115 ft | 14 kts | 239° |
| 2026-04-23 16:26 | 55.94990 | -3.36708 | 113 ft | 15 kts | 239° |
| 2026-04-23 16:26 | 55.94946 | -3.36818 | 116 ft | 10 kts | 214° |
| 2026-04-23 16:27 | 55.94883 | -3.36791 | 114 ft | 10 kts | 152° |
| 2026-04-23 16:27 | 55.94817 | -3.36778 | 116 ft | 7 kts | 179° |
| 2026-04-23 16:27 | 55.94771 | -3.36764 | 116 ft | 6 kts | 153° |
| 2026-04-23 16:27 | 55.94750 | -3.36701 | 114 ft | 6 kts | 89° |
| 2026-04-23 16:28 | 55.94752 | -3.36634 | 116 ft | 5 kts | 88° |
| 2026-04-23 16:28 | 55.94752 | -3.36616 | 116 ft | 0 kts | 90° |